Time;durP1;ratioP1;P1;durP2;ratioP2;P2;SDS_P1;SDS_P2;PMS_P1;PMS_P2;Temp;Humidity;BMP_temperature;BMP_pressure;BME280_temperature;BME280_humidity;BME280_pressure;Samples;Min_cycle;Max_cycle;Signal;HPM_P1;HPM_P2
2022/10/17 00:00:33;;;;;;;;;17.00;14.00;;;;;20.71;70.99;100896.88;2121561;27;46324;-64
2022/10/17 00:01:33;;;;;;;;;22.25;21.25;;;;;20.71;70.89;100895.09;2120707;27;46691;-65
2022/10/17 00:02:34;;;;;;;;;12.00;11.00;;;;;20.71;70.74;100892.38;2120395;27;46534;-64
2022/10/17 00:03:36;;;;;;;;;10.00;10.00;;;;;20.71;70.81;100900.47;2107973;27;46507;-64
2022/10/17 00:04:36;;;;;;;;;10.50;10.50;;;;;20.70;70.86;100896.00;2109260;27;46579;-64
2022/10/17 00:05:41;;;;;;;;;8.00;8.00;;;;;20.71;71.18;100900.47;2119873;27;46001;-65
2022/10/17 00:06:42;;;;;;;;;9.25;9.25;;;;;20.72;70.53;100902.22;2115896;27;46660;-66
2022/10/17 00:07:42;;;;;;;;;9.00;9.00;;;;;20.72;71.22;100902.22;2116152;27;45668;-64
2022/10/17 00:08:43;;;;;;;;;11.00;9.67;;;;;20.71;70.43;100903.16;2119576;27;46638;-65
2022/10/17 00:09:43;;;;;;;;;9.33;9.33;;;;;20.72;70.51;100914.81;2119881;27;46851;-66
2022/10/17 00:10:44;;;;;;;;;10.33;10.33;;;;;20.71;70.68;100911.25;2120679;27;46726;-64
2022/10/17 00:11:44;;;;;;;;;12.00;12.00;;;;;20.72;70.42;100909.44;2116416;27;46654;-64
2022/10/17 00:12:45;;;;;;;;;9.00;9.00;;;;;20.73;70.87;100914.72;2113017;27;46481;-65
2022/10/17 00:13:48;;;;;;;;;8.00;6.67;;;;;20.73;70.32;100914.72;2121277;27;46670;-64
2022/10/17 00:14:48;;;;;;;;;8.25;8.25;;;;;20.73;70.76;100911.16;2119905;27;47063;-65
2022/10/17 00:15:49;;;;;;;;;8.00;8.00;;;;;20.74;70.73;100907.50;2122096;27;46150;-63
2022/10/17 00:16:49;;;;;;;;;10.33;9.67;;;;;20.74;70.44;100902.97;2119731;27;46380;-65
2022/10/17 00:17:49;;;;;;;;;8.67;8.67;;;;;20.75;70.67;100902.00;2118967;27;46370;-65
2022/10/17 00:18:50;;;;;;;;;8.00;7.00;;;;;20.75;70.65;100910.09;2113477;27;46302;-65
2022/10/17 00:19:50;;;;;;;;;8.67;8.67;;;;;20.75;70.93;100906.53;2099455;28;46140;-64
2022/10/17 00:20:51;;;;;;;;;9.67;8.33;;;;;20.74;70.91;100910.19;2095533;28;45174;-64
2022/10/17 00:21:51;;;;;;;;;10.00;10.00;;;;;20.75;70.61;100914.63;2114659;27;46487;-65
2022/10/17 00:22:52;;;;;;;;;10.00;9.67;;;;;20.75;70.95;100914.63;2115762;27;46633;-66
2022/10/17 00:23:53;;;;;;;;;11.33;10.33;;;;;20.74;70.63;100919.16;2113678;27;45979;-64
2022/10/17 00:24:54;;;;;;;;;10.00;8.50;;;;;20.74;70.59;100918.28;2115462;27;46421;-64
2022/10/17 00:26:03;;;;;;;;;8.67;8.67;;;;;20.74;70.97;100916.47;2115704;27;46651;-64
2022/10/17 00:27:04;;;;;;;;;10.25;10.25;;;;;20.72;70.41;100915.69;2120515;27;46725;-63
2022/10/17 00:28:04;;;;;;;;;10.00;10.00;;;;;20.73;70.62;100913.88;2119139;27;46685;-66
2022/10/17 00:29:04;;;;;;;;;8.33;8.00;;;;;20.73;70.60;100916.56;2118867;27;46579;-64
2022/10/17 00:30:08;;;;;;;;;7.33;7.33;;;;;20.72;70.90;100915.69;2117808;27;45781;-65
2022/10/17 00:31:08;;;;;;;;;9.00;9.00;;;;;20.71;70.71;100913.97;2116768;27;46287;-65
2022/10/17 00:32:09;;;;;;;;;9.00;9.00;;;;;20.71;70.68;100916.66;2110618;27;46705;-64
2022/10/17 00:33:09;;;;;;;;;8.00;8.00;;;;;20.71;70.33;100919.34;2107519;27;45473;-64
2022/10/17 00:34:09;;;;;;;;;6.00;6.00;;;;;20.69;70.49;100915.84;2118034;27;46281;-66
2022/10/17 00:35:10;;;;;;;;;10.00;9.00;;;;;20.70;70.16;100916.72;2121563;27;45688;-65
2022/10/17 00:36:12;;;;;;;;;7.67;7.67;;;;;20.70;70.36;100919.41;2120324;27;46378;-65
2022/10/17 00:37:13;;;;;;;;;9.25;8.00;;;;;20.71;70.77;100923.84;2119797;27;47123;-66
2022/10/17 00:38:13;;;;;;;;;4.00;3.00;;;;;20.70;70.74;100925.69;2113012;27;46584;-65
2022/10/17 00:39:13;;;;;;;;;9.00;9.00;;;;;20.70;70.49;100924.81;2113653;27;46632;-65
2022/10/17 00:40:14;;;;;;;;;10.33;10.33;;;;;20.71;70.37;100923.84;2112930;27;46219;-66
2022/10/17 00:41:17;;;;;;;;;13.00;9.67;;;;;20.70;70.25;100924.81;2117495;27;46305;-65
2022/10/17 00:42:17;;;;;;;;;9.50;9.50;;;;;20.71;70.77;100930.16;2119895;27;45708;-64
2022/10/17 00:43:18;;;;;;;;;9.00;9.00;;;;;20.70;70.18;100930.22;2119271;27;46334;-64
2022/10/17 00:44:27;;;;;;;;;12.00;12.00;;;;;20.69;70.36;100923.94;2120459;27;46290;-65
2022/10/17 00:45:30;;;;;;;;;9.75;8.25;;;;;20.69;70.33;100937.44;2119268;27;47210;-64
2022/10/17 00:46:37;;;;;;;;;9.50;9.50;;;;;20.69;70.50;100934.72;2112813;27;46780;-63
2022/10/17 00:47:39;;;;;;;;;7.50;7.50;;;;;20.70;70.06;100935.59;2112656;27;46367;-65
2022/10/17 00:48:41;;;;;;;;;7.25;7.25;;;;;20.69;70.40;100939.25;2114286;27;46697;-66
2022/10/17 00:49:41;;;;;;;;;8.00;8.00;;;;;20.69;70.53;100936.56;2113033;27;46734;-65
2022/10/17 00:50:45;;;;;;;;;7.33;7.33;;;;;20.69;69.89;100939.25;2115564;27;46304;-63
2022/10/17 00:51:51;;;;;;;;;7.50;7.50;;;;;20.68;70.52;100933.00;2121296;27;46111;-64
2022/10/17 00:52:53;;;;;;;;;9.75;8.00;;;;;20.69;69.79;100932.03;2119019;27;46465;-64
2022/10/17 00:53:54;;;;;;;;;8.00;8.00;;;;;20.68;70.43;100922.22;2090303;28;46908;-65
2022/10/17 00:55:06;;;;;;;;;8.75;8.75;;;;;20.70;70.00;100930.22;2095359;27;46628;-63
2022/10/17 00:56:07;;;;;;;;;8.75;8.75;;;;;20.69;70.36;100921.25;2117327;27;46605;-63
2022/10/17 00:57:07;;;;;;;;;8.33;8.00;;;;;20.70;69.84;100922.97;2116289;27;45975;-65
2022/10/17 00:58:08;;;;;;;;;7.33;7.33;;;;;20.71;70.16;100921.16;2118619;27;45536;-65
2022/10/17 00:59:11;;;;;;;;;11.00;9.33;;;;;20.71;69.75;100916.66;2112930;27;46466;-64
2022/10/17 01:00:13;;;;;;;;;10.50;10.50;;;;;20.71;70.06;100921.16;2114823;27;46694;-64
2022/10/17 01:01:13;;;;;;;;;9.50;9.50;;;;;20.70;70.08;100916.72;2119348;27;46972;-63
2022/10/17 01:02:17;;;;;;;;;9.00;9.00;;;;;20.71;70.01;100919.34;2121889;27;46487;-64
2022/10/17 01:03:17;;;;;;;;;9.00;9.00;;;;;20.73;69.69;100935.44;2116423;27;46646;-65
2022/10/17 01:04:18;;;;;;;;;9.00;9.00;;;;;20.73;70.18;100924.66;2122742;27;46574;-64
2022/10/17 01:05:19;;;;;;;;;9.00;9.00;;;;;20.73;69.98;100930.03;2122987;27;45528;-65
2022/10/17 01:06:19;;;;;;;;;9.75;9.75;;;;;20.72;69.58;100931.88;2120979;27;46593;-64
2022/10/17 01:07:20;;;;;;;;;6.67;6.67;;;;;20.72;69.52;100926.47;2122089;27;46108;-63
2022/10/17 01:08:20;;;;;;;;;9.00;9.00;;;;;20.71;69.49;100919.34;2119966;27;46497;-64
2022/10/17 01:09:21;;;;;;;;;9.67;9.67;;;;;20.71;69.83;100924.75;2115816;27;46616;-65
2022/10/17 01:10:26;;;;;;;;;10.33;10.33;;;;;20.71;69.76;100927.44;2116489;27;46520;-64
2022/10/17 01:11:38;;;;;;;;;11.00;8.25;;;;;20.72;69.40;100936.41;2116968;27;46726;-64
2022/10/17 01:13:06;;;;;;;;;8.25;8.00;;;;;20.70;69.92;100936.47;2122572;27;46572;-65
2022/10/17 01:14:32;;;;;;;;;7.00;7.00;;;;;20.70;69.85;100936.47;2114632;27;45957;-65
2022/10/17 01:15:55;;;;;;;;;7.50;6.50;;;;;20.70;69.42;100931.06;2119338;27;46606;-64
2022/10/17 01:17:13;;;;;;;;;7.00;7.00;;;;;20.69;69.26;100925.78;2116821;27;46267;-65
2022/10/17 01:18:22;;;;;;;;;11.50;11.50;;;;;20.69;69.70;100923.94;2119606;27;46763;-65
2022/10/17 01:19:42;;;;;;;;;7.50;7.50;;;;;20.69;69.43;100923.09;2118553;27;46383;-64
2022/10/17 01:21:09;;;;;;;;;8.50;8.00;;;;;20.68;69.11;100930.31;2114198;27;46597;-64
2022/10/17 01:22:25;;;;;;;;;7.50;7.50;;;;;20.69;69.28;100933.88;2114297;27;46381;-64
2022/10/17 01:24:03;;;;;;;;;6.50;6.50;;;;;20.69;69.65;100936.56;2114861;27;46438;-64
2022/10/17 01:25:22;;;;;;;;;9.75;8.50;;;;;20.67;69.04;100936.66;2118441;27;46436;-64
2022/10/17 01:26:29;;;;;;;;;7.75;7.75;;;;;20.68;69.28;100932.13;2119807;27;46245;-64
2022/10/17 01:27:48;;;;;;;;;9.00;8.00;;;;;20.67;69.15;100935.78;2117950;27;46686;-65
2022/10/17 01:29:13;;;;;;;;;9.50;8.00;;;;;20.67;69.57;100933.97;2117942;27;46369;-65
2022/10/17 01:30:32;;;;;;;;;0.00;0.00;;;;;20.66;69.42;100937.63;2119912;27;46831;-64
2022/10/17 01:31:47;;;;;;;;;7.00;7.00;;;;;20.65;69.32;100941.28;2117034;27;46415;-64
2022/10/17 01:32:57;;;;;;;;;7.75;7.00;;;;;20.64;69.29;100947.63;2119104;27;46324;-64
2022/10/17 01:34:17;;;;;;;;;6.25;6.25;;;;;20.64;68.96;100936.84;2113981;27;46638;-65
2022/10/17 01:35:28;;;;;;;;;8.00;8.00;;;;;20.64;69.24;100933.28;2115058;27;46821;-64
2022/10/17 01:36:39;;;;;;;;;6.75;6.75;;;;;20.65;69.41;100949.38;2116601;27;46488;-66
2022/10/17 01:37:50;;;;;;;;;7.75;7.25;;;;;20.65;69.13;100943.13;2118694;27;45703;-64
2022/10/17 01:39:16;;;;;;;;;8.50;8.50;;;;;20.65;68.77;100954.75;2115999;27;46721;-64
2022/10/17 01:40:52;;;;;;;;;8.25;7.25;;;;;20.63;69.30;100950.44;2086131;28;47210;-65
2022/10/17 01:42:25;;;;;;;;;8.75;7.50;;;;;20.63;68.82;100950.44;2069799;28;46800;-64
2022/10/17 01:43:33;;;;;;;;;9.75;9.00;;;;;20.63;69.25;100945.03;2069508;28;46797;-64
2022/10/17 01:44:46;;;;;;;;;10.75;10.75;;;;;20.63;69.11;100945.91;2070940;28;46892;-64
2022/10/17 01:45:59;;;;;;;;;10.25;10.00;;;;;20.64;69.16;100950.34;2062648;28;46606;-64
2022/10/17 01:47:06;;;;;;;;;7.75;7.00;;;;;20.63;68.98;100951.28;2064096;28;46979;-64
2022/10/17 01:48:15;;;;;;;;;8.25;8.25;;;;;20.64;68.91;100952.16;2067898;28;47210;-64
2022/10/17 01:49:20;;;;;;;;;8.00;8.00;;;;;20.64;68.84;100957.56;2070797;28;46506;-64
2022/10/17 01:50:30;;;;;;;;;8.50;8.00;;;;;20.62;68.48;100949.56;2070828;28;46328;-65
2022/10/17 01:51:37;;;;;;;;;8.50;8.50;;;;;20.62;69.15;100954.97;2069298;28;46916;-64
2022/10/17 01:52:43;;;;;;;;;8.00;8.00;;;;;20.61;69.10;100955.91;2070671;28;46545;-65
2022/10/17 01:54:00;;;;;;;;;7.00;7.00;;;;;20.61;68.43;100952.34;2071708;28;45812;-64
2022/10/17 01:55:10;;;;;;;;;8.25;6.75;;;;;20.61;68.78;100955.06;2067416;28;46607;-64
2022/10/17 01:56:13;;;;;;;;;10.00;9.75;;;;;20.61;69.06;100955.06;2071113;28;45316;-64
2022/10/17 01:57:29;;;;;;;;;7.50;7.50;;;;;20.60;68.97;100948.78;2070906;28;46531;-64
2022/10/17 01:58:35;;;;;;;;;7.50;7.25;;;;;20.59;68.38;100952.44;2069652;28;46269;-64
2022/10/17 01:59:40;;;;;;;;;10.00;9.75;;;;;20.59;68.57;100944.38;2071156;28;46982;-64
2022/10/17 02:00:44;;;;;;;;;6.75;6.75;;;;;20.59;68.47;100952.44;2070855;28;46622;-64
2022/10/17 02:01:46;;;;;;;;;6.25;6.25;;;;;20.57;68.37;100947.13;2071255;28;46354;-66
2022/10/17 02:02:51;;;;;;;;;9.25;8.00;;;;;20.57;68.79;100948.94;2071491;28;46926;-64
2022/10/17 02:03:53;;;;;;;;;7.25;7.25;;;;;20.56;68.62;100955.31;2076725;28;46487;-64
2022/10/17 02:04:56;;;;;;;;;7.00;7.00;;;;;20.55;68.46;100957.13;2070972;28;46537;-65
2022/10/17 02:05:56;;;;;;;;;7.25;6.75;;;;;20.54;68.63;100955.41;2070903;28;47945;-66
2022/10/17 02:07:05;;;;;;;;;10.00;8.00;;;;;20.54;68.36;100955.41;2071148;28;46144;-65
2022/10/17 02:08:06;;;;;;;;;8.50;6.75;;;;;20.53;68.28;100959.06;2071532;28;46374;-66
2022/10/17 02:09:25;;;;;;;;;6.75;6.50;;;;;20.54;68.74;100954.53;2070919;28;46470;-64
2022/10/17 02:10:41;;;;;;;;;9.25;9.25;;;;;20.54;68.94;100958.09;2064832;28;46416;-64
2022/10/17 02:11:57;;;;;;;;;8.50;8.50;;;;;20.53;68.81;100958.19;2069445;28;46844;-65
2022/10/17 02:13:09;;;;;;;;;8.00;7.25;;;;;20.53;68.64;100953.66;2070730;28;47019;-65
2022/10/17 02:14:35;;;;;;;;;8.50;8.50;;;;;20.52;68.48;100949.25;2068924;28;46462;-65
2022/10/17 02:15:58;;;;;;;;;7.75;7.25;;;;;20.52;68.92;100942.97;2065373;28;46244;-65
2022/10/17 02:17:30;;;;;;;;;6.00;5.75;;;;;20.51;68.81;100950.19;2064806;28;46910;-65
2022/10/17 02:18:39;;;;;;;;;7.75;7.75;;;;;20.51;68.43;100942.09;2086915;27;46169;-65
2022/10/17 02:19:55;;;;;;;;;5.75;5.75;;;;;20.50;68.76;100940.38;2109097;27;46574;-67
2022/10/17 02:21:07;;;;;;;;;5.25;5.25;;;;;20.50;68.92;100950.28;2115621;27;46552;-66
2022/10/17 02:22:16;;;;;;;;;9.50;8.75;;;;;20.49;68.59;100953.94;2113637;27;44982;-64
2022/10/17 02:23:41;;;;;;;;;7.25;7.25;;;;;20.49;68.74;100956.66;2115269;27;48093;-63
2022/10/17 02:24:49;;;;;;;;;8.25;8.25;;;;;20.47;68.87;100953.19;2117852;27;46296;-65
2022/10/17 02:26:17;;;;;;;;;7.00;6.00;;;;;20.46;68.31;100946.06;2117083;27;45857;-64
2022/10/17 02:27:39;;;;;;;;;6.00;6.00;;;;;20.45;68.95;100946.97;2083765;28;46601;-64
2022/10/17 02:29:10;;;;;;;;;9.75;9.00;;;;;20.45;69.05;100946.97;2087564;28;45604;-64
2022/10/17 02:30:35;;;;;;;;;6.75;6.75;;;;;20.44;69.01;100937.16;2083223;28;46282;-65
2022/10/17 02:31:50;;;;;;;;;7.25;7.25;;;;;20.44;68.82;100929.06;2082390;28;46682;-65
2022/10/17 02:32:54;;;;;;;;;7.25;7.00;;;;;20.43;68.82;100933.59;2087488;28;46488;-64
2022/10/17 02:34:02;;;;;;;;;6.25;5.50;;;;;20.44;68.60;100939.84;2085346;28;46339;-65
2022/10/17 02:35:07;;;;;;;;;8.50;6.50;;;;;20.45;68.63;100930.81;2079841;28;45635;-65
2022/10/17 02:36:12;;;;;;;;;10.00;8.00;;;;;20.44;68.60;100932.63;2079081;28;45794;-65
2022/10/17 02:37:17;;;;;;;;;6.00;6.00;;;;;20.45;69.03;100936.19;2079510;28;45973;-64
2022/10/17 02:38:20;;;;;;;;;6.50;6.50;;;;;20.44;68.73;100932.63;2087227;28;47034;-65
2022/10/17 02:39:23;;;;;;;;;6.50;6.25;;;;;20.45;68.70;100928.09;2086319;28;46897;-65
2022/10/17 02:40:28;;;;;;;;;9.00;7.75;;;;;20.44;68.75;100932.63;2086005;28;45366;-65
2022/10/17 02:41:30;;;;;;;;;8.25;8.25;;;;;20.45;68.45;100930.81;2078246;28;45760;-65
2022/10/17 02:42:31;;;;;;;;;10.00;8.00;;;;;20.44;68.61;100937.16;2078023;28;46367;-65
2022/10/17 02:43:34;;;;;;;;;5.50;4.75;;;;;20.44;68.30;100939.84;2086933;28;46707;-64
2022/10/17 02:44:38;;;;;;;;;11.25;9.50;;;;;20.43;69.00;100938.13;2087049;28;46465;-65
2022/10/17 02:45:39;;;;;;;;;6.00;6.00;;;;;20.43;68.74;100935.44;2087291;28;46713;-65
2022/10/17 02:46:41;;;;;;;;;8.50;8.50;;;;;20.42;68.15;100931.84;2087029;28;46793;-66
2022/10/17 02:48:01;;;;;;;;;6.50;6.50;;;;;20.42;68.53;100931.00;2085862;28;46239;-64
2022/10/17 02:49:04;;;;;;;;;10.00;9.00;;;;;20.41;68.99;100930.09;2081015;28;46532;-63
2022/10/17 02:50:04;;;;;;;;;8.00;8.00;;;;;20.41;68.65;100931.91;2078123;28;46588;-64
2022/10/17 02:51:20;;;;;;;;;9.00;8.00;;;;;20.40;69.07;100931.06;2078569;28;47058;-64
2022/10/17 02:52:39;;;;;;;;;7.50;7.50;;;;;20.41;68.68;100940.00;2087460;28;46444;-64
2022/10/17 02:54:05;;;;;;;;;9.00;9.00;;;;;20.41;68.64;100937.31;2087257;28;46671;-65
2022/10/17 02:55:16;;;;;;;;;7.75;7.75;;;;;20.41;69.06;100945.41;2084753;28;46886;-64
2022/10/17 02:56:18;;;;;;;;;7.75;7.75;;;;;20.42;68.59;100949.88;2087598;28;46604;-66
2022/10/17 02:57:36;;;;;;;;;8.00;7.00;;;;;20.40;69.17;100955.31;2084155;28;46931;-64
2022/10/17 02:58:38;;;;;;;;;6.25;6.25;;;;;20.41;68.88;100956.19;2087300;28;46806;-65
2022/10/17 02:59:41;;;;;;;;;8.50;7.25;;;;;20.41;68.86;100956.19;2086851;28;46891;-64
2022/10/17 03:00:42;;;;;;;;;8.00;6.75;;;;;20.41;68.78;100958.88;2070429;28;46465;-64
2022/10/17 03:01:43;;;;;;;;;8.50;8.50;;;;;20.41;68.91;100958.88;2070553;28;46710;-65
2022/10/17 03:02:45;;;;;;;;;8.33;7.00;;;;;20.40;68.33;100968.78;2087461;28;46351;-65
2022/10/17 03:03:46;;;;;;;;;8.25;8.25;;;;;20.39;69.05;100960.81;2087029;28;46535;-65
2022/10/17 03:04:46;;;;;;;;;8.00;7.00;;;;;20.39;68.63;100963.50;2093453;27;46406;-65
2022/10/17 03:05:47;;;;;;;;;6.67;6.67;;;;;20.39;68.51;100963.50;2113628;27;46368;-64
2022/10/17 03:06:48;;;;;;;;;9.33;8.67;;;;;20.39;68.79;100958.09;2122562;27;45029;-64
2022/10/17 03:07:48;;;;;;;;;7.00;7.00;;;;;20.37;68.61;100954.63;2120670;27;45692;-65
2022/10/17 03:08:49;;;;;;;;;8.00;8.00;;;;;20.36;69.05;100953.78;2122125;27;45890;-64
2022/10/17 03:09:49;;;;;;;;;2.00;2.00;;;;;20.36;69.04;100952.91;2120177;27;47338;-65
2022/10/17 03:10:49;;;;;;;;;6.00;6.00;;;;;20.36;68.90;100947.50;2120211;27;46695;-65
2022/10/17 03:11:50;;;;;;;;;9.00;9.00;;;;;20.36;68.92;100950.22;2113685;27;46412;-65
2022/10/17 03:12:50;;;;;;;;;9.00;8.00;;;;;20.36;68.86;100950.22;2117880;27;46413;-65
2022/10/17 03:13:50;;;;;;;;;7.33;7.00;;;;;20.36;68.90;100958.28;2120491;27;46145;-65
2022/10/17 03:14:51;;;;;;;;;7.33;7.33;;;;;20.36;68.51;100952.91;2119187;27;46998;-66
2022/10/17 03:15:51;;;;;;;;;9.00;6.67;;;;;20.35;68.43;100954.72;2114895;27;46547;-64
2022/10/17 03:16:51;;;;;;;;;7.00;7.00;;;;;20.36;68.47;100950.22;2114844;27;46249;-64
2022/10/17 03:17:52;;;;;;;;;7.33;6.67;;;;;20.37;68.54;100957.34;2118229;27;46601;-64
2022/10/17 03:18:52;;;;;;;;;6.67;6.67;;;;;20.37;68.57;100963.59;2099950;28;46398;-65
2022/10/17 03:19:52;;;;;;;;;7.00;5.67;;;;;20.37;68.21;100966.28;2096079;28;46189;-64
2022/10/17 03:20:53;;;;;;;;;8.00;8.00;;;;;20.36;68.07;100964.56;2113242;27;46245;-65
2022/10/17 03:21:53;;;;;;;;;6.33;6.33;;;;;20.36;68.30;100963.69;2107480;27;47291;-66
2022/10/17 03:22:53;;;;;;;;;9.00;8.00;;;;;20.36;68.55;100952.91;2096527;28;46565;-65
2022/10/17 03:23:54;;;;;;;;;9.33;6.00;;;;;20.36;68.39;100952.91;2106987;27;46819;-65
2022/10/17 03:24:54;;;;;;;;;6.67;6.67;;;;;20.36;68.29;100950.22;2107283;27;46234;-64
2022/10/17 03:25:54;;;;;;;;;6.67;6.67;;;;;20.35;68.25;100953.88;2109051;27;46399;-65
2022/10/17 03:26:54;;;;;;;;;9.00;9.00;;;;;20.37;68.27;100954.63;2115902;27;46520;-66
2022/10/17 03:27:58;;;;;;;;;7.33;6.33;;;;;20.38;67.98;100959.94;2119305;27;46273;-64
2022/10/17 03:28:58;;;;;;;;;7.75;7.00;;;;;20.39;68.27;100963.50;2119233;27;46591;-65
2022/10/17 03:29:59;;;;;;;;;6.33;6.33;;;;;20.39;67.92;100966.19;2113918;27;46245;-64
2022/10/17 03:31:06;;;;;;;;;8.00;8.00;;;;;20.38;68.28;100959.06;2114136;27;45536;-65
2022/10/17 03:32:06;;;;;;;;;6.00;6.00;;;;;20.37;67.57;100962.72;2120320;27;46536;-64
2022/10/17 03:33:06;;;;;;;;;8.00;7.33;;;;;20.36;67.54;100958.28;2120423;27;45881;-64
2022/10/17 03:34:07;;;;;;;;;6.33;6.33;;;;;20.36;67.64;100966.38;2117641;27;46688;-65
2022/10/17 03:35:07;;;;;;;;;6.00;6.00;;;;;20.35;68.15;100976.28;2103351;28;46679;-64
2022/10/17 03:36:10;;;;;;;;;7.50;7.50;;;;;20.35;67.89;100986.22;2095527;28;46578;-65
2022/10/17 03:37:10;;;;;;;;;6.00;6.00;;;;;20.34;67.77;100988.03;2117935;27;46418;-65
2022/10/17 03:38:10;;;;;;;;;8.33;8.00;;;;;20.31;67.25;100980.09;2113362;27;46773;-65
2022/10/17 03:39:11;;;;;;;;;8.00;7.67;;;;;20.32;67.29;100983.66;2114058;27;45443;-65
2022/10/17 03:40:11;;;;;;;;;9.33;7.00;;;;;20.32;67.57;100980.97;2118831;27;46243;-65
2022/10/17 03:41:12;;;;;;;;;8.33;6.33;;;;;20.31;67.04;100981.94;2118044;27;46285;-65
2022/10/17 03:42:12;;;;;;;;;7.00;6.00;;;;;20.31;67.62;100988.19;2118667;27;45971;-64
2022/10/17 03:43:12;;;;;;;;;8.00;7.00;;;;;20.31;67.72;100992.72;2118976;27;46041;-64
2022/10/17 03:44:12;;;;;;;;;8.67;7.67;;;;;20.31;67.25;100993.56;2117711;27;46477;-65
2022/10/17 03:45:13;;;;;;;;;5.67;5.67;;;;;20.30;67.44;101002.63;2118027;27;45732;-65
2022/10/17 03:46:13;;;;;;;;;8.00;7.33;;;;;20.30;67.60;100999.94;2118198;27;46307;-64
2022/10/17 03:47:14;;;;;;;;;8.33;8.00;;;;;20.30;67.60;101013.41;2116797;27;46362;-64
2022/10/17 03:48:14;;;;;;;;;6.00;6.00;;;;;20.31;66.95;101006.19;2120560;27;46471;-65
2022/10/17 03:49:14;;;;;;;;;11.00;8.50;;;;;20.31;67.39;101012.44;2118237;27;45838;-64
2022/10/17 03:50:15;;;;;;;;;9.00;8.00;;;;;20.32;67.56;101006.09;2118129;27;45530;-64
2022/10/17 03:51:15;;;;;;;;;6.00;6.00;;;;;20.31;67.00;101008.88;2120259;27;46489;-63
2022/10/17 03:52:15;;;;;;;;;8.00;8.00;;;;;20.30;67.35;101008.00;2114747;27;45634;-64
2022/10/17 03:53:16;;;;;;;;;7.00;7.00;;;;;20.30;67.21;101013.41;2118103;27;46426;-65
2022/10/17 03:54:16;;;;;;;;;6.67;6.67;;;;;20.29;67.46;101006.28;2120198;27;46768;-64
2022/10/17 03:55:17;;;;;;;;;9.00;7.33;;;;;20.29;66.59;101015.22;2115175;27;46243;-64
2022/10/17 03:56:20;;;;;;;;;7.00;7.00;;;;;20.30;66.56;101018.78;2113389;27;46615;-64
2022/10/17 03:57:20;;;;;;;;;6.75;6.75;;;;;20.28;67.13;101018.03;2117055;27;47298;-65
2022/10/17 03:58:21;;;;;;;;;6.00;6.00;;;;;20.28;66.84;101020.72;2117942;27;46344;-64
2022/10/17 03:59:21;;;;;;;;;5.67;5.67;;;;;20.28;66.66;101026.09;2119591;27;46699;-64
2022/10/17 04:00:21;;;;;;;;;6.67;6.67;;;;;20.26;67.12;101015.41;2121458;27;46431;-65
2022/10/17 04:01:22;;;;;;;;;6.33;5.00;;;;;20.26;66.83;101026.19;2121653;27;46317;-65
2022/10/17 04:02:23;;;;;;;;;7.25;7.25;;;;;20.27;67.29;101019.84;2118174;27;46308;-64
2022/10/17 04:03:23;;;;;;;;;8.00;8.00;;;;;20.26;66.67;101018.13;2096850;28;46305;-65
2022/10/17 04:04:23;;;;;;;;;7.33;7.33;;;;;20.26;66.55;101023.50;2097881;28;46309;-65
2022/10/17 04:05:24;;;;;;;;;7.00;6.67;;;;;20.26;66.91;101014.53;2120407;27;46344;-64
2022/10/17 04:06:24;;;;;;;;;6.00;5.67;;;;;20.26;67.42;101017.25;2110104;27;46114;-64
2022/10/17 04:07:25;;;;;;;;;8.00;7.33;;;;;20.27;67.02;101017.16;2111718;27;46356;-64
2022/10/17 04:08:25;;;;;;;;;8.00;6.67;;;;;20.27;66.58;101019.84;2121124;27;46444;-65
2022/10/17 04:09:26;;;;;;;;;8.00;7.00;;;;;20.26;66.94;101020.81;2118906;27;46398;-65
2022/10/17 04:10:26;;;;;;;;;5.33;5.33;;;;;20.26;66.61;101020.81;2119232;27;46741;-64
2022/10/17 04:11:26;;;;;;;;;8.00;8.00;;;;;20.26;67.05;101023.50;2120225;27;46112;-64
2022/10/17 04:12:27;;;;;;;;;8.33;8.33;;;;;20.26;66.92;101025.31;2119809;27;46479;-64
2022/10/17 04:13:28;;;;;;;;;6.67;6.67;;;;;20.26;67.04;101025.31;2120350;27;46655;-64
2022/10/17 04:14:28;;;;;;;;;6.50;6.00;;;;;20.26;67.14;101023.50;2121645;27;46659;-64
2022/10/17 04:15:29;;;;;;;;;5.33;5.33;;;;;20.28;66.81;101023.41;2114409;27;46419;-64
2022/10/17 04:16:29;;;;;;;;;6.33;6.00;;;;;20.28;66.63;101020.72;2118552;27;46407;-65
2022/10/17 04:17:30;;;;;;;;;7.67;7.00;;;;;20.28;66.66;101023.41;2117709;27;46840;-64
2022/10/17 04:18:30;;;;;;;;;6.25;6.25;;;;;20.28;66.78;101029.66;2120077;27;46748;-64
2022/10/17 04:19:31;;;;;;;;;7.00;7.00;;;;;20.27;67.04;101025.25;2117712;27;46274;-65
2022/10/17 04:20:33;;;;;;;;;7.00;7.00;;;;;20.28;66.42;101024.28;2113069;27;46184;-64
2022/10/17 04:21:34;;;;;;;;;6.50;6.00;;;;;20.29;66.43;101027.84;2118395;27;47161;-64
2022/10/17 04:22:34;;;;;;;;;6.33;6.33;;;;;20.28;66.82;101028.81;2120421;27;45215;-65
2022/10/17 04:23:34;;;;;;;;;6.67;5.33;;;;;20.28;66.72;101029.66;2115380;27;46537;-66
2022/10/17 04:24:35;;;;;;;;;6.00;6.00;;;;;20.28;66.33;101032.38;2111941;27;46275;-66
2022/10/17 04:25:35;;;;;;;;;5.67;5.67;;;;;20.28;66.42;101029.66;2108360;27;46475;-66
2022/10/17 04:26:35;;;;;;;;;7.00;6.00;;;;;20.28;66.35;101035.06;2116847;27;45592;-65
2022/10/17 04:27:36;;;;;;;;;3.67;3.33;;;;;20.27;66.59;101027.94;2120515;27;46279;-64
2022/10/17 04:28:36;;;;;;;;;8.33;7.67;;;;;20.27;66.26;101033.31;2121657;27;45734;-65
2022/10/17 04:29:36;;;;;;;;;5.67;5.67;;;;;20.27;66.56;101037.84;2118687;27;46328;-64
2022/10/17 04:30:37;;;;;;;;;6.00;6.00;;;;;20.25;66.31;101043.31;2121562;27;46545;-65
2022/10/17 04:31:37;;;;;;;;;11.00;8.00;;;;;20.26;66.47;101041.50;2119164;27;46243;-65
2022/10/17 04:32:38;;;;;;;;;6.67;6.00;;;;;20.26;66.97;101036.97;2107940;27;46701;-65
2022/10/17 04:33:38;;;;;;;;;6.00;6.00;;;;;20.26;66.73;101036.97;2111695;27;46691;-64
2022/10/17 04:34:39;;;;;;;;;6.00;6.00;;;;;20.26;66.82;101036.97;2120685;27;46389;-64
2022/10/17 04:35:39;;;;;;;;;10.00;7.67;;;;;20.26;66.37;101036.97;2117999;27;45646;-64
2022/10/17 04:36:40;;;;;;;;;8.67;7.33;;;;;20.27;66.29;101032.47;2106728;27;46889;-65
2022/10/17 04:37:40;;;;;;;;;9.67;9.00;;;;;20.27;66.89;101041.41;2108611;27;46782;-65
2022/10/17 04:38:40;;;;;;;;;7.00;7.00;;;;;20.28;66.09;101039.59;2118158;27;45901;-64
2022/10/17 04:39:41;;;;;;;;;6.00;5.67;;;;;20.28;66.53;101042.28;2120451;27;46525;-64
2022/10/17 04:40:41;;;;;;;;;6.67;6.67;;;;;20.29;66.56;101038.63;2112427;27;46816;-63
2022/10/17 04:41:41;;;;;;;;;7.67;7.67;;;;;20.31;66.43;101046.63;2109488;27;45427;-64
2022/10/17 04:42:42;;;;;;;;;7.00;7.00;;;;;20.29;66.73;101047.56;2113840;27;46405;-64
2022/10/17 04:43:43;;;;;;;;;6.33;6.33;;;;;20.30;66.38;101045.75;2118145;27;47083;-64
2022/10/17 04:44:43;;;;;;;;;6.00;6.00;;;;;20.30;66.20;101053.84;2114632;27;46936;-64
2022/10/17 04:45:44;;;;;;;;;8.00;7.67;;;;;20.29;66.49;101054.78;2120852;27;45231;-65
2022/10/17 04:46:44;;;;;;;;;8.00;6.00;;;;;20.29;66.25;101054.78;2119238;27;46230;-64
2022/10/17 04:47:44;;;;;;;;;10.33;9.33;;;;;20.28;65.96;101056.63;2104497;27;47727;-63
2022/10/17 04:48:44;;;;;;;;;8.00;6.00;;;;;20.30;66.18;101051.13;2108841;27;46827;-64
2022/10/17 04:49:45;;;;;;;;;6.00;6.00;;;;;20.29;66.04;101052.97;2116998;27;46150;-66
2022/10/17 04:50:57;;;;;;;;;7.33;6.33;;;;;20.30;66.15;101056.53;2118601;27;46233;-64
2022/10/17 04:51:57;;;;;;;;;8.00;8.00;;;;;20.30;65.93;101053.84;2118381;27;47084;-64
2022/10/17 04:52:58;;;;;;;;;8.00;8.00;;;;;20.31;66.13;101052.00;2121241;27;46610;-65
2022/10/17 04:53:58;;;;;;;;;11.00;11.00;;;;;20.31;66.04;101046.63;2117002;27;46944;-64
2022/10/17 04:54:59;;;;;;;;;7.33;7.33;;;;;20.31;66.06;101055.56;2113045;27;47157;-64
2022/10/17 04:55:59;;;;;;;;;9.00;7.67;;;;;20.31;66.31;101057.41;2115034;27;46770;-66
2022/10/17 04:57:00;;;;;;;;;8.67;8.67;;;;;20.31;66.51;101060.09;2120097;27;46419;-64
2022/10/17 04:58:00;;;;;;;;;7.00;7.00;;;;;20.31;66.27;101066.34;2121002;27;46578;-63
2022/10/17 04:59:00;;;;;;;;;8.33;7.33;;;;;20.31;66.59;101065.47;2121558;27;46221;-64
2022/10/17 05:00:01;;;;;;;;;6.00;6.00;;;;;20.32;66.16;101067.22;2112527;27;46455;-63
2022/10/17 05:01:09;;;;;;;;;6.00;6.00;;;;;20.31;65.83;101060.09;2115499;27;46144;-65